createdAt,value
2022-12-24T00:00:27.602Z,94231.22
2022-12-24T00:03:07.576Z,94227.00
2022-12-24T00:05:56.541Z,94232.88
2022-12-24T00:08:36.541Z,94228.66
2022-12-24T00:11:23.543Z,94224.47
2022-12-24T00:13:56.666Z,94219.44
2022-12-24T00:16:43.631Z,94207.66
2022-12-24T00:19:17.246Z,94207.66
2022-12-24T00:22:03.558Z,94209.34
2022-12-24T00:24:43.546Z,94200.94
2022-12-24T00:27:37.544Z,94203.44
2022-12-24T00:30:31.605Z,94200.09
2022-12-24T00:33:24.249Z,94198.41
2022-12-24T00:35:59.689Z,94200.94
2022-12-24T00:38:46.560Z,94202.63
2022-12-24T00:41:30.720Z,94201.78
2022-12-24T00:44:17.563Z,94206.81
2022-12-24T00:46:51.167Z,94210.19
2022-12-24T00:49:37.566Z,94206.00
2022-12-24T00:52:10.664Z,94220.28
2022-12-24T00:54:57.567Z,94224.47
2022-12-24T00:57:37.556Z,94227.00
2022-12-24T01:00:24.565Z,94226.16
2022-12-24T01:02:57.922Z,94216.91
2022-12-24T01:05:44.574Z,94226.16
2022-12-24T01:08:17.695Z,94223.63
2022-12-24T01:11:04.563Z,94215.22
2022-12-24T01:13:37.791Z,94222.78
2022-12-24T01:16:26.639Z,94217.75
2022-12-24T01:18:59.701Z,94210.19
2022-12-24T01:21:46.592Z,94210.19
2022-12-24T01:24:23.687Z,94213.53
2022-12-24T01:27:10.577Z,94211.00
2022-12-24T01:29:50.578Z,94208.50
2022-12-24T01:32:44.572Z,94210.19
2022-12-24T01:35:38.581Z,94201.75
2022-12-24T01:38:26.641Z,94205.16
2022-12-24T01:41:24.596Z,94196.72
2022-12-24T01:44:37.584Z,94187.50
2022-12-24T01:47:23.557Z,94184.97
2022-12-24T01:50:21.570Z,94186.63
2022-12-24T01:53:01.618Z,94173.19
2022-12-24T01:55:56.592Z,94162.25
2022-12-24T01:58:44.573Z,94158.91
2022-12-24T02:01:24.691Z,94149.66
2022-12-24T02:04:18.607Z,94139.56
2022-12-24T02:06:51.743Z,94128.63
2022-12-24T02:09:39.577Z,94130.31
2022-12-24T02:12:20.667Z,94122.75
2022-12-24T02:15:15.654Z,94114.38
2022-12-24T02:18:23.580Z,94101.75
2022-12-24T02:21:44.584Z,94101.75
2022-12-24T02:25:02.643Z,94093.34
2022-12-24T02:28:13.599Z,94096.69
2022-12-24T02:31:18.654Z,94095.88
2022-12-24T02:34:19.593Z,94096.69
2022-12-24T02:37:11.603Z,94100.91
2022-12-24T02:40:16.109Z,94102.56
2022-12-24T02:42:58.573Z,94102.56
2022-12-24T02:45:56.924Z,94111.84
2022-12-24T02:48:41.611Z,94107.63
2022-12-24T02:51:37.610Z,94116.88
2022-12-24T02:54:25.730Z,94105.94
2022-12-24T02:57:20.758Z,94102.56
2022-12-24T03:00:10.670Z,94102.59
2022-12-24T03:02:49.808Z,94100.91
2022-12-24T03:05:47.738Z,94097.53
2022-12-24T03:08:50.617Z,94090.81
2022-12-24T03:11:44.611Z,94095.00
2022-12-24T03:14:33.611Z,94091.66
2022-12-24T03:17:09.748Z,94070.66
2022-12-24T03:19:56.686Z,94042.88
2022-12-24T03:22:31.698Z,94079.06
2022-12-24T03:25:18.616Z,94084.09
2022-12-24T03:27:52.752Z,94093.31
2022-12-24T03:30:39.677Z,94101.72
2022-12-24T03:33:19.608Z,94089.13
2022-12-24T03:36:06.628Z,94096.72
2022-12-24T03:38:40.789Z,94092.47
2022-12-24T03:41:29.605Z,94100.03
2022-12-24T03:44:09.613Z,94090.81
2022-12-24T03:47:03.627Z,94084.91
2022-12-24T03:49:50.643Z,94089.94
2022-12-24T03:52:30.628Z,94097.53
2022-12-24T03:55:24.615Z,94090.81
2022-12-24T03:58:18.638Z,94098.38
2022-12-24T04:01:15.689Z,94096.69
2022-12-24T04:04:09.611Z,94095.00
2022-12-24T04:06:56.628Z,94090.81
2022-12-24T04:09:29.768Z,94095.00
2022-12-24T04:12:16.633Z,94095.84
2022-12-24T04:14:50.459Z,94099.22
2022-12-24T04:17:37.683Z,94089.94
2022-12-24T04:20:11.779Z,94079.88
2022-12-24T04:22:59.607Z,94065.59
2022-12-24T04:25:32.760Z,94065.59
2022-12-24T04:28:20.638Z,94071.47
2022-12-24T04:31:00.642Z,94066.41
2022-12-24T04:33:54.630Z,94068.09
2022-12-24T04:36:48.667Z,94081.56
2022-12-24T04:39:35.681Z,94079.88
2022-12-24T04:42:15.615Z,94089.13
2022-12-24T04:45:02.711Z,94094.16
2022-12-24T04:47:35.778Z,94092.47
2022-12-24T04:50:22.648Z,94093.31
2022-12-24T04:53:02.628Z,94096.69
2022-12-24T04:55:55.004Z,94095.03
2022-12-24T04:58:28.808Z,94094.19
2022-12-24T05:01:19.745Z,94087.44
2022-12-24T05:03:57.826Z,94085.75
2022-12-24T05:06:44.648Z,94082.38
2022-12-24T05:09:19.607Z,94076.50
2022-12-24T05:12:06.654Z,94080.72
2022-12-24T05:14:39.778Z,94077.38
2022-12-24T05:17:26.658Z,94088.28
2022-12-24T05:19:59.782Z,94089.94
2022-12-24T05:23:05.683Z,94087.47
2022-12-24T05:26:01.624Z,94085.78
2022-12-24T05:28:48.656Z,94089.13
2022-12-24T05:31:21.834Z,94091.66
2022-12-24T05:34:09.708Z,94089.13
2022-12-24T05:36:49.689Z,94084.09
2022-12-24T05:39:36.669Z,94095.88
2022-12-24T05:42:16.722Z,94095.03
2022-12-24T05:45:10.659Z,94092.47
2022-12-24T05:47:57.703Z,94097.53
2022-12-24T05:50:30.817Z,94098.38
2022-12-24T05:53:17.688Z,94097.53
2022-12-24T05:55:50.813Z,94101.75
2022-12-24T05:58:37.688Z,94106.78
2022-12-24T06:01:11.876Z,94116.03
2022-12-24T06:03:59.736Z,94116.88
2022-12-24T06:06:41.687Z,94119.38
2022-12-24T06:09:28.720Z,94115.16
2022-12-24T06:12:08.720Z,94113.50
2022-12-24T06:14:55.694Z,94122.75
2022-12-24T06:17:35.697Z,94123.59
2022-12-24T06:20:22.660Z,94120.22
2022-12-24T06:22:55.779Z,94135.38
2022-12-24T06:25:42.713Z,94129.50
2022-12-24T06:28:22.711Z,94139.56
2022-12-24T06:31:10.781Z,94142.91
2022-12-24T06:33:50.663Z,94129.50
2022-12-24T06:36:37.694Z,94136.19
2022-12-24T06:39:10.812Z,94143.75
2022-12-24T06:41:57.700Z,94153.03
2022-12-24T06:44:30.824Z,94158.06
2022-12-24T06:47:17.729Z,94160.56
2022-12-24T06:49:50.805Z,94159.75
2022-12-24T06:52:37.694Z,94163.97
2022-12-24T06:55:18.728Z,94165.63
2022-12-24T06:58:05.702Z,94170.69
2022-12-24T07:00:38.855Z,94173.19
2022-12-24T07:03:25.729Z,94178.25
2022-12-24T07:06:07.695Z,94174.03
2022-12-24T07:09:01.715Z,94172.38
2022-12-24T07:11:48.716Z,94174.88
2022-12-24T07:14:21.836Z,94184.97
2022-12-24T07:17:08.849Z,94193.41
2022-12-24T07:19:41.840Z,94198.44
2022-12-24T07:22:28.717Z,94203.50
2022-12-24T07:25:01.875Z,94192.56
2022-12-24T07:27:48.722Z,94197.59
2022-12-24T07:30:28.757Z,94194.22
2022-12-24T07:33:18.777Z,94205.16
2022-12-24T07:35:55.795Z,94203.50
2022-12-24T07:38:44.724Z,94215.28
2022-12-24T07:41:18.819Z,94219.50
2022-12-24T07:44:05.705Z,94224.53
2022-12-24T07:46:41.134Z,94215.28
2022-12-24T07:49:27.702Z,94227.91
2022-12-24T07:52:00.824Z,94219.47
2022-12-24T07:54:47.712Z,94226.19
2022-12-24T07:57:20.826Z,94232.94
2022-12-24T08:00:07.719Z,94234.63
2022-12-24T08:02:53.925Z,94235.47
2022-12-24T08:05:42.764Z,94246.38
2022-12-24T08:08:15.886Z,94244.72
2022-12-24T08:11:08.725Z,94247.25
2022-12-24T08:13:41.835Z,94257.34
2022-12-24T08:16:28.852Z,94267.44
2022-12-24T08:19:08.771Z,94251.44
2022-12-24T08:21:55.715Z,94254.00
2022-12-24T08:24:28.806Z,94250.59
2022-12-24T08:27:15.740Z,94254.84
2022-12-24T08:29:55.709Z,94260.72
2022-12-24T08:32:50.851Z,94261.53
2022-12-24T08:35:37.725Z,94265.78
2022-12-24T08:38:10.868Z,94271.66
2022-12-24T08:40:59.801Z,94257.38
2022-12-24T08:43:43.672Z,94266.59
2022-12-24T08:46:37.805Z,94262.41
2022-12-24T08:49:31.732Z,94264.94
2022-12-24T08:52:18.805Z,94259.88
2022-12-24T08:54:51.876Z,94266.63
2022-12-24T08:57:47.642Z,94271.66
2022-12-24T09:00:41.761Z,94269.13
2022-12-24T09:03:39.291Z,94284.28
2022-12-24T09:06:32.771Z,94281.72
2022-12-24T09:09:26.772Z,94283.41
2022-12-24T09:12:21.796Z,94269.94
2022-12-24T09:15:09.730Z,94278.34
2022-12-24T09:17:42.960Z,94275.81
2022-12-24T09:20:29.731Z,94275.81
2022-12-24T09:23:02.915Z,94278.31
2022-12-24T09:25:50.764Z,94262.31
2022-12-24T09:28:23.920Z,94266.53
2022-12-24T09:31:11.898Z,94264.00
2022-12-24T09:33:48.126Z,94263.16
2022-12-24T09:36:34.773Z,94261.47
2022-12-24T09:39:21.799Z,94265.69
2022-12-24T09:42:37.738Z,94264.81
2022-12-24T09:45:30.825Z,94266.53
2022-12-24T09:48:14.889Z,94267.34
2022-12-24T09:51:11.803Z,94273.22
2022-12-24T09:54:08.776Z,94275.75
2022-12-24T09:57:02.828Z,94269.03
2022-12-24T09:59:58.779Z,94268.19
2022-12-24T10:02:52.935Z,94265.66
2022-12-24T10:06:07.794Z,94276.59
2022-12-24T10:09:06.801Z,94286.69
2022-12-24T10:12:07.804Z,94290.06
2022-12-24T10:15:07.797Z,94280.75
2022-12-24T10:17:59.810Z,94286.66
2022-12-24T10:21:04.781Z,94282.41
2022-12-24T10:24:01.907Z,94289.13
2022-12-24T10:26:49.890Z,94295.03
2022-12-24T10:29:40.818Z,94308.50
2022-12-24T10:32:17.380Z,94309.34
2022-12-24T10:35:14.821Z,94318.63
2022-12-24T10:37:52.835Z,94313.53
2022-12-24T10:40:50.803Z,94309.31
2022-12-24T10:43:33.803Z,94296.66
2022-12-24T10:46:33.844Z,94303.41
2022-12-24T10:49:23.788Z,94313.53
2022-12-24T10:52:09.801Z,94305.91
2022-12-24T10:55:21.795Z,94306.75
2022-12-24T10:58:14.822Z,94319.41
2022-12-24T11:01:10.958Z,94318.56
2022-12-24T11:04:08.810Z,94310.97
2022-12-24T11:07:05.800Z,94305.06
2022-12-24T11:10:11.813Z,94312.66
2022-12-24T11:13:36.211Z,94316.03
2022-12-24T11:16:13.862Z,94310.09
2022-12-24T11:18:56.838Z,94307.56
2022-12-24T11:21:39.920Z,94312.63
2022-12-24T11:24:45.033Z,94306.66
2022-12-24T11:27:40.511Z,94330.28
2022-12-24T11:30:32.077Z,94319.25
2022-12-24T11:33:08.908Z,94317.53
2022-12-24T11:36:01.875Z,94322.56
2022-12-24T11:38:42.846Z,94331.00
2022-12-24T11:41:33.842Z,94339.41
2022-12-24T11:44:09.900Z,94339.41
2022-12-24T11:47:13.836Z,94347.00
2022-12-24T11:50:18.334Z,94347.84
2022-12-24T11:53:09.841Z,94344.44
2022-12-24T11:55:42.916Z,94341.03
2022-12-24T11:58:33.798Z,94361.28
2022-12-24T12:01:24.938Z,94361.31
2022-12-24T12:04:41.793Z,94361.38
2022-12-24T12:07:33.852Z,94375.72
2022-12-24T12:10:19.967Z,94372.38
2022-12-24T12:13:15.820Z,94380.00
2022-12-24T12:16:19.988Z,94386.81
2022-12-24T12:19:15.003Z,94397.75
2022-12-24T12:21:52.948Z,94396.94
2022-12-24T12:24:55.795Z,94391.88
2022-12-24T12:27:41.893Z,94399.50
2022-12-24T12:30:31.853Z,94417.25
2022-12-24T12:33:28.859Z,94406.28
2022-12-24T12:36:29.840Z,94410.50
2022-12-24T12:39:17.860Z,94413.06
2022-12-24T12:42:02.591Z,94421.47
2022-12-24T12:44:53.846Z,94415.59
2022-12-24T12:47:48.933Z,94411.34
2022-12-24T12:50:47.860Z,94413.91
2022-12-24T12:53:34.927Z,94434.13
2022-12-24T12:56:41.847Z,94435.81
2022-12-24T12:59:29.916Z,94443.41
2022-12-24T13:02:53.929Z,94442.56
2022-12-24T13:06:18.863Z,94440.91
2022-12-24T13:09:43.850Z,94449.34
2022-12-24T13:13:16.999Z,94456.09
2022-12-24T13:16:15.940Z,94466.19
2022-12-24T13:19:38.058Z,94469.59
2022-12-24T13:22:34.857Z,94461.16
2022-12-24T13:25:28.993Z,94472.97
2022-12-24T13:28:01.928Z,94469.59
2022-12-24T13:30:48.848Z,94479.72
2022-12-24T13:33:43.900Z,94481.41
2022-12-24T13:36:30.862Z,94480.56
2022-12-24T13:39:04.949Z,94482.25
2022-12-24T13:41:58.851Z,94496.59
2022-12-24T13:44:33.618Z,94494.91
2022-12-24T13:47:22.175Z,94492.38
2022-12-24T13:50:00.195Z,94474.66
2022-12-24T13:53:05.303Z,94488.16
2022-12-24T13:55:46.836Z,94509.22
2022-12-24T13:58:40.869Z,94506.69
2022-12-24T14:01:43.057Z,94491.53
2022-12-24T14:04:40.148Z,94494.91
2022-12-24T14:07:34.873Z,94495.75
2022-12-24T14:10:34.886Z,94513.44
2022-12-24T14:13:10.175Z,94516.81
2022-12-24T14:15:56.859Z,94510.06
2022-12-24T14:18:34.011Z,94526.94
2022-12-24T14:21:41.942Z,94521.88
2022-12-24T14:24:26.394Z,94527.78
2022-12-24T14:27:14.837Z,94526.09
2022-12-24T14:30:16.885Z,94540.44
2022-12-24T14:33:10.857Z,94534.53
2022-12-24T14:35:57.913Z,94552.25
2022-12-24T14:38:32.016Z,94544.66
2022-12-24T14:41:48.161Z,94559.00
2022-12-24T14:44:45.979Z,94564.91
2022-12-24T14:47:42.191Z,94565.75
2022-12-24T14:50:57.912Z,94566.56
2022-12-24T14:54:20.852Z,94575.00
2022-12-24T14:57:16.871Z,94578.41
2022-12-24T15:00:05.922Z,94580.91
2022-12-24T15:02:57.029Z,94580.91
2022-12-24T15:05:41.900Z,94589.38
2022-12-24T15:08:43.890Z,94597.81
2022-12-24T15:11:30.874Z,94596.94
2022-12-24T15:14:13.900Z,94596.09
2022-12-24T15:17:08.018Z,94615.50
2022-12-24T15:20:01.045Z,94617.19
2022-12-24T15:22:38.963Z,94614.69
2022-12-24T15:25:36.885Z,94616.38
2022-12-24T15:28:16.903Z,94623.09
2022-12-24T15:31:26.940Z,94618.91
2022-12-24T15:34:11.917Z,94630.72
2022-12-24T15:37:05.912Z,94626.47
2022-12-24T15:40:04.319Z,94625.66
2022-12-24T15:42:37.982Z,94626.50
2022-12-24T15:45:32.947Z,94634.09
2022-12-24T15:48:21.900Z,94640.00
2022-12-24T15:51:17.913Z,94639.97
2022-12-24T15:54:08.914Z,94644.22
2022-12-24T15:56:48.337Z,94642.53
2022-12-24T15:59:47.904Z,94651.81
2022-12-24T16:02:48.026Z,94642.53
2022-12-24T16:05:40.846Z,94642.53
2022-12-24T16:08:26.903Z,94637.47
2022-12-24T16:11:36.877Z,94651.81
2022-12-24T16:14:32.886Z,94657.72
2022-12-24T16:17:34.000Z,94669.56
2022-12-24T16:20:28.910Z,94672.91
2022-12-24T16:23:02.019Z,94676.28
2022-12-24T16:25:48.911Z,94673.75
2022-12-24T16:28:23.385Z,94684.75
2022-12-24T16:31:09.955Z,94688.97
2022-12-24T16:33:44.415Z,94693.16
2022-12-24T16:36:30.896Z,94700.78
2022-12-24T16:39:29.949Z,94702.47
2022-12-24T16:42:41.898Z,94712.59
2022-12-24T16:45:30.764Z,94704.16
2022-12-24T16:48:07.322Z,94713.44
2022-12-24T16:50:53.909Z,94708.38
2022-12-24T16:53:29.012Z,94707.53
2022-12-24T16:56:15.902Z,94721.88
2022-12-24T16:58:48.996Z,94722.72
2022-12-24T17:01:36.046Z,94736.22
2022-12-24T17:04:09.083Z,94737.06
2022-12-24T17:06:56.915Z,94747.16
2022-12-24T17:09:30.120Z,94754.78
2022-12-24T17:12:16.945Z,94754.75
2022-12-24T17:14:50.039Z,94757.28
2022-12-24T17:17:36.925Z,94760.66
2022-12-24T17:20:11.077Z,94764.88
2022-12-24T17:22:57.901Z,94753.03
2022-12-24T17:25:37.985Z,94764.03
2022-12-24T17:28:24.942Z,94765.72
2022-12-24T17:31:05.964Z,94774.16
2022-12-24T17:33:52.941Z,94772.50
2022-12-24T17:36:33.914Z,94766.59
2022-12-24T17:39:27.222Z,94766.59
2022-12-24T17:42:01.259Z,94769.97
2022-12-24T17:44:47.956Z,94775.81
2022-12-24T17:47:27.955Z,94779.19
2022-12-24T17:50:21.918Z,94790.19
2022-12-24T17:53:08.987Z,94793.56
2022-12-24T17:55:47.091Z,94801.97
2022-12-24T17:58:41.925Z,94801.94
2022-12-24T18:01:38.029Z,94810.38
2022-12-24T18:04:31.929Z,94812.03
2022-12-24T18:07:18.932Z,94811.19
2022-12-24T18:09:58.933Z,94810.31
2022-12-24T18:12:52.932Z,94809.47
2022-12-24T18:15:48.958Z,94817.03
2022-12-24T18:18:42.944Z,94817.84
2022-12-24T18:21:33.931Z,94829.63
2022-12-24T18:24:07.118Z,94833.00
2022-12-24T18:26:53.968Z,94827.94
2022-12-24T18:29:27.055Z,94839.72
2022-12-24T18:32:13.968Z,94845.63
2022-12-24T18:34:53.926Z,94838.06
2022-12-24T18:37:40.955Z,94847.34
2022-12-24T18:40:15.220Z,94845.69
2022-12-24T18:43:01.923Z,94855.84
2022-12-24T18:45:41.961Z,94860.09
2022-12-24T18:48:35.955Z,94849.16
2022-12-24T18:51:30.958Z,94851.72
2022-12-24T18:54:24.938Z,94851.72
2022-12-24T18:57:11.973Z,94859.31
2022-12-24T18:59:46.059Z,94871.97
2022-12-24T19:02:33.041Z,94863.50
2022-12-24T19:05:06.109Z,94878.72
2022-12-24T19:07:52.952Z,94882.09
2022-12-24T19:10:26.063Z,94881.25
2022-12-24T19:13:12.958Z,94888.00
2022-12-24T19:15:55.059Z,94897.25
2022-12-24T19:18:48.986Z,94902.31
2022-12-24T19:21:42.987Z,94894.69
2022-12-24T19:24:29.967Z,94902.25
2022-12-24T19:27:09.961Z,94905.59
2022-12-24T19:29:56.977Z,94919.09
2022-12-24T19:32:36.964Z,94917.41
2022-12-24T19:35:24.988Z,94919.09
2022-12-24T19:38:04.992Z,94915.72
2022-12-24T19:40:58.983Z,94928.34
2022-12-24T19:43:48.002Z,94935.91
2022-12-24T19:46:25.099Z,94939.28
2022-12-24T19:49:13.984Z,94940.91
2022-12-24T19:51:54.011Z,94945.94
2022-12-24T19:54:48.995Z,94941.72
2022-12-24T19:57:35.993Z,94940.00
2022-12-24T20:00:11.107Z,94953.56
2022-12-24T20:02:58.334Z,94952.78
2022-12-24T20:05:32.068Z,94957.88
2022-12-24T20:08:18.985Z,94950.28
2022-12-24T20:10:52.082Z,94953.69
2022-12-24T20:13:42.976Z,94950.34
2022-12-24T20:16:26.085Z,94954.59
2022-12-24T20:19:13.972Z,94968.94
2022-12-24T20:21:47.126Z,94975.69
2022-12-24T20:24:35.003Z,94974.03
2022-12-24T20:27:08.075Z,94980.75
2022-12-24T20:29:54.983Z,94975.69
2022-12-24T20:32:29.522Z,94977.38
2022-12-24T20:35:16.003Z,94982.47
2022-12-24T20:37:49.081Z,94978.25
2022-12-24T20:40:35.998Z,94985.78
2022-12-24T20:43:09.091Z,94994.25
2022-12-24T20:45:58.026Z,94988.38
2022-12-24T20:48:32.084Z,94988.41
2022-12-24T20:51:33.019Z,94990.94
2022-12-24T20:54:07.144Z,94995.97
2022-12-24T20:56:57.886Z,94990.03
2022-12-24T20:59:39.013Z,94984.94
2022-12-24T21:02:26.219Z,94976.47
2022-12-24T21:05:06.981Z,94984.88
2022-12-24T21:08:01.024Z,94990.72
2022-12-24T21:11:16.004Z,94989.81
2022-12-24T21:14:03.089Z,94997.34
2022-12-24T21:16:42.150Z,94995.63
2022-12-24T21:19:31.029Z,95004.81
2022-12-24T21:22:11.008Z,95008.13
2022-12-24T21:24:58.000Z,95008.91
2022-12-24T21:27:39.002Z,95012.25
2022-12-24T21:30:26.016Z,95029.00
2022-12-24T21:33:06.004Z,95022.25
2022-12-24T21:36:00.007Z,95021.38
2022-12-24T21:38:54.042Z,95028.09
2022-12-24T21:41:41.014Z,95031.44
2022-12-24T21:44:14.089Z,95030.59
2022-12-24T21:47:01.022Z,95026.31
2022-12-24T21:49:52.949Z,95027.13
2022-12-24T21:52:40.011Z,95036.38
2022-12-24T21:55:20.046Z,95034.66
2022-12-24T21:58:13.993Z,95044.75
2022-12-24T22:01:08.209Z,95042.19
2022-12-24T22:04:02.003Z,95042.16
2022-12-24T22:07:14.020Z,95043.81
2022-12-24T22:10:26.008Z,95047.16
2022-12-24T22:13:15.033Z,95058.09
2022-12-24T22:16:01.040Z,95055.56
2022-12-24T22:18:55.157Z,95060.59
2022-12-24T22:21:42.030Z,95058.91
2022-12-24T22:24:15.130Z,95058.88
2022-12-24T22:27:02.012Z,95069.81
2022-12-24T22:29:35.413Z,95067.28
2022-12-24T22:32:22.034Z,95069.81
2022-12-24T22:34:55.135Z,95075.69
2022-12-24T22:37:42.043Z,95075.69
2022-12-24T22:40:16.138Z,95079.88
2022-12-24T22:43:03.074Z,95086.63
2022-12-24T22:45:36.175Z,95082.41
2022-12-24T22:48:23.027Z,95084.06
2022-12-24T22:50:56.204Z,95097.56
2022-12-24T22:53:44.055Z,95096.72
2022-12-24T22:56:40.761Z,95098.41
2022-12-24T22:59:35.050Z,95103.41
2022-12-24T23:02:27.871Z,95108.47
2022-12-24T23:05:09.014Z,95107.59
2022-12-24T23:08:03.067Z,95109.28
2022-12-24T23:10:50.054Z,95112.66
2022-12-24T23:13:41.617Z,95106.72
2022-12-24T23:16:28.060Z,95108.38
2022-12-24T23:19:03.175Z,95110.91
2022-12-24T23:21:50.036Z,95107.53
2022-12-24T23:24:23.162Z,95107.53
2022-12-24T23:27:11.093Z,95108.38
2022-12-24T23:29:44.161Z,95115.09
2022-12-24T23:32:31.074Z,95119.31
2022-12-24T23:35:11.055Z,95110.03
2022-12-24T23:38:05.050Z,95109.16
2022-12-24T23:40:52.037Z,95097.34
2022-12-24T23:43:25.242Z,95099.03
2022-12-24T23:46:12.096Z,95104.88
2022-12-24T23:48:55.069Z,95107.38
2022-12-24T23:51:49.061Z,95110.69
2022-12-24T23:54:43.060Z,95121.59
2022-12-24T23:57:30.029Z,95127.44
